sensor_id;sensor_type;location;lat;lon;timestamp;temperature;humidity
76759;DHT22;65701;45.588;5.186;2024-01-11T05:21:49;2.40;84.42
76759;DHT22;65701;45.588;5.186;2024-01-11T05:24:14;2.44;84.40
76759;DHT22;65701;45.588;5.186;2024-01-11T05:26:40;2.42;84.30
76759;DHT22;65701;45.588;5.186;2024-01-11T05:29:05;2.41;84.48
76759;DHT22;65701;45.588;5.186;2024-01-11T05:31:31;2.41;84.64
76759;DHT22;65701;45.588;5.186;2024-01-11T05:33:56;2.37;84.78
76759;DHT22;65701;45.588;5.186;2024-01-11T05:36:21;2.41;84.75
76759;DHT22;65701;45.588;5.186;2024-01-11T05:38:47;2.41;84.64
76759;DHT22;65701;45.588;5.186;2024-01-11T05:41:13;2.44;84.48
76759;DHT22;65701;45.588;5.186;2024-01-11T05:43:39;2.45;84.47
76759;DHT22;65701;45.588;5.186;2024-01-11T05:46:05;2.45;84.57
76759;DHT22;65701;45.588;5.186;2024-01-11T05:48:32;2.48;84.59
76759;DHT22;65701;45.588;5.186;2024-01-11T05:50:57;2.46;84.60
76759;DHT22;65701;45.588;5.186;2024-01-11T05:53:23;2.48;84.57
76759;DHT22;65701;45.588;5.186;2024-01-11T05:55:50;2.52;84.42
76759;DHT22;65701;45.588;5.186;2024-01-11T05:58:15;2.49;84.48
76759;DHT22;65701;45.588;5.186;2024-01-11T06:00:40;2.45;84.55
76759;DHT22;65701;45.588;5.186;2024-01-11T06:03:07;2.48;84.53
76759;DHT22;65701;45.588;5.186;2024-01-11T06:05:32;2.49;84.50
76759;DHT22;65701;45.588;5.186;2024-01-11T06:07:58;2.51;84.46
76759;DHT22;65701;45.588;5.186;2024-01-11T06:10:23;2.51;84.45
76759;DHT22;65701;45.588;5.186;2024-01-11T06:12:49;2.51;84.38
76759;DHT22;65701;45.588;5.186;2024-01-11T06:15:14;2.49;84.35
76759;DHT22;65701;45.588;5.186;2024-01-11T06:17:40;2.49;84.24
76759;DHT22;65701;45.588;5.186;2024-01-11T06:20:06;2.52;84.26
76759;DHT22;65701;45.588;5.186;2024-01-11T06:22:32;2.49;84.38
76759;DHT22;65701;45.588;5.186;2024-01-11T06:24:57;2.49;84.41
76759;DHT22;65701;45.588;5.186;2024-01-11T06:27:24;2.49;84.35
76759;DHT22;65701;45.588;5.186;2024-01-11T06:29:50;2.53;84.36
76759;DHT22;65701;45.588;5.186;2024-01-11T06:32:15;2.55;84.29
76759;DHT22;65701;45.588;5.186;2024-01-11T06:34:41;2.53;84.32
76759;DHT22;65701;45.588;5.186;2024-01-11T06:37:10;2.53;84.36
76759;DHT22;65701;45.588;5.186;2024-01-11T06:39:36;2.55;84.35
76759;DHT22;65701;45.588;5.186;2024-01-11T06:42:01;2.53;84.30
76759;DHT22;65701;45.588;5.186;2024-01-11T06:44:27;2.56;84.22
76759;DHT22;65701;45.588;5.186;2024-01-11T06:46:52;2.58;84.19
76759;DHT22;65701;45.588;5.186;2024-01-11T06:49:18;2.59;84.14
76759;DHT22;65701;45.588;5.186;2024-01-11T06:51:43;2.58;84.15
76759;DHT22;65701;45.588;5.186;2024-01-11T06:54:09;2.61;84.15
76759;DHT22;65701;45.588;5.186;2024-01-11T06:56:34;2.56;84.11
76759;DHT22;65701;45.588;5.186;2024-01-11T06:59:01;2.55;84.18
76759;DHT22;65701;45.588;5.186;2024-01-11T07:01:26;2.55;84.13
76759;DHT22;65701;45.588;5.186;2024-01-11T07:03:52;2.53;84.33
76759;DHT22;65701;45.588;5.186;2024-01-11T07:06:18;2.53;84.35
76759;DHT22;65701;45.588;5.186;2024-01-11T07:08:43;2.49;84.27
76759;DHT22;65701;45.588;5.186;2024-01-11T07:11:09;2.52;84.26
76759;DHT22;65701;45.588;5.186;2024-01-11T07:13:35;2.49;84.25
76759;DHT22;65701;45.588;5.186;2024-01-11T07:16:00;2.44;84.52
76759;DHT22;65701;45.588;5.186;2024-01-11T07:18:28;2.42;84.58
76759;DHT22;65701;45.588;5.186;2024-01-11T07:20:56;2.42;84.63
76759;DHT22;65701;45.588;5.186;2024-01-11T07:23:23;2.44;84.57
76759;DHT22;65701;45.588;5.186;2024-01-11T07:25:49;2.45;84.58
76759;DHT22;65701;45.588;5.186;2024-01-11T07:28:15;2.44;84.55
76759;DHT22;65701;45.588;5.186;2024-01-11T07:30:42;2.45;84.60
76759;DHT22;65701;45.588;5.186;2024-01-11T07:33:07;2.48;84.52
76759;DHT22;65701;45.588;5.186;2024-01-11T07:35:34;2.45;84.46
76759;DHT22;65701;45.588;5.186;2024-01-11T07:38:00;2.48;84.56
76759;DHT22;65701;45.588;5.186;2024-01-11T07:40:25;2.48;84.55
76759;DHT22;65701;45.588;5.186;2024-01-11T07:42:51;2.48;84.50
76759;DHT22;65701;45.588;5.186;2024-01-11T07:45:16;2.45;84.48
76759;DHT22;65701;45.588;5.186;2024-01-11T07:47:42;2.48;84.45
76759;DHT22;65701;45.588;5.186;2024-01-11T07:50:08;2.45;84.53
76759;DHT22;65701;45.588;5.186;2024-01-11T07:52:38;2.48;84.43
76759;DHT22;65701;45.588;5.186;2024-01-11T07:55:04;2.49;84.38
76759;DHT22;65701;45.588;5.186;2024-01-11T07:57:39;2.48;84.36
76759;DHT22;65701;45.588;5.186;2024-01-11T08:00:06;2.51;84.37
76759;DHT22;65701;45.588;5.186;2024-01-11T08:02:35;2.52;84.38
76759;DHT22;65701;45.588;5.186;2024-01-11T08:05:01;2.51;84.38
76759;DHT22;65701;45.588;5.186;2024-01-11T08:07:27;2.51;84.36
76759;DHT22;65701;45.588;5.186;2024-01-11T08:09:52;2.52;84.32
76759;DHT22;65701;45.588;5.186;2024-01-11T08:12:18;2.53;84.24
76759;DHT22;65701;45.588;5.186;2024-01-11T08:14:43;2.49;84.23
76759;DHT22;65701;45.588;5.186;2024-01-11T08:17:11;2.49;84.27
76759;DHT22;65701;45.588;5.186;2024-01-11T08:19:36;2.46;84.27
76759;DHT22;65701;45.588;5.186;2024-01-11T08:22:01;2.45;84.28
76759;DHT22;65701;45.588;5.186;2024-01-11T08:24:27;2.41;84.19
76759;DHT22;65701;45.588;5.186;2024-01-11T08:26:53;2.37;84.17
76759;DHT22;65701;45.588;5.186;2024-01-11T08:29:18;2.30;84.24
76759;DHT22;65701;45.588;5.186;2024-01-11T08:31:45;2.27;84.25
76759;DHT22;65701;45.588;5.186;2024-01-11T08:34:11;2.25;84.21
76759;DHT22;65701;45.588;5.186;2024-01-11T08:36:36;2.17;84.29
76759;DHT22;65701;45.588;5.186;2024-01-11T08:39:04;2.11;84.32
76759;DHT22;65701;45.588;5.186;2024-01-11T08:41:34;2.10;84.48
76759;DHT22;65701;45.588;5.186;2024-01-11T08:44:01;2.06;84.63
76759;DHT22;65701;45.588;5.186;2024-01-11T08:46:28;2.07;84.62
76759;DHT22;65701;45.588;5.186;2024-01-11T08:48:56;2.04;84.71
76759;DHT22;65701;45.588;5.186;2024-01-11T08:51:22;2.03;84.74
76759;DHT22;65701;45.588;5.186;2024-01-11T08:53:48;1.97;84.78
76759;DHT22;65701;45.588;5.186;2024-01-11T08:56:13;1.93;84.89
76759;DHT22;65701;45.588;5.186;2024-01-11T08:58:41;1.93;84.92
76759;DHT22;65701;45.588;5.186;2024-01-11T09:01:06;1.96;84.90
76759;DHT22;65701;45.588;5.186;2024-01-11T09:03:36;1.93;84.76
76759;DHT22;65701;45.588;5.186;2024-01-11T09:06:02;1.95;84.74
76759;DHT22;65701;45.588;5.186;2024-01-11T09:08:28;1.97;84.75
76759;DHT22;65701;45.588;5.186;2024-01-11T09:10:55;1.95;84.93
76759;DHT22;65701;45.588;5.186;2024-01-11T09:13:21;1.90;84.79
76759;DHT22;65701;45.588;5.186;2024-01-11T09:15:46;1.90;84.83
76759;DHT22;65701;45.588;5.186;2024-01-11T09:18:12;1.93;84.91
76759;DHT22;65701;45.588;5.186;2024-01-11T09:20:37;1.99;84.87
76759;DHT22;65701;45.588;5.186;2024-01-11T09:23:03;1.99;84.83
76759;DHT22;65701;45.588;5.186;2024-01-11T09:25:31;2.03;84.77
76759;DHT22;65701;45.588;5.186;2024-01-11T09:27:57;2.04;84.74
76759;DHT22;65701;45.588;5.186;2024-01-11T09:30:25;2.09;84.67
76759;DHT22;65701;45.588;5.186;2024-01-11T09:32:50;2.11;84.62
76759;DHT22;65701;45.588;5.186;2024-01-11T09:35:16;2.14;84.49
76759;DHT22;65701;45.588;5.186;2024-01-11T09:37:42;2.18;84.45
76759;DHT22;65701;45.588;5.186;2024-01-11T09:40:12;2.25;84.40
76759;DHT22;65701;45.588;5.186;2024-01-11T09:42:38;2.27;84.34
76759;DHT22;65701;45.588;5.186;2024-01-11T09:45:14;2.32;84.31
76759;DHT22;65701;45.588;5.186;2024-01-11T09:47:41;2.38;84.24
76759;DHT22;65701;45.588;5.186;2024-01-11T09:50:07;2.46;84.22
76759;DHT22;65701;45.588;5.186;2024-01-11T09:52:33;2.49;84.14
76759;DHT22;65701;45.588;5.186;2024-01-11T09:55:01;2.53;84.05
76759;DHT22;65701;45.588;5.186;2024-01-11T09:57:29;2.58;84.04
76759;DHT22;65701;45.588;5.186;2024-01-11T09:59:56;2.66;84.08
76759;DHT22;65701;45.588;5.186;2024-01-11T10:02:23;2.69;84.11
76759;DHT22;65701;45.588;5.186;2024-01-11T10:04:53;2.72;84.06
76759;DHT22;65701;45.588;5.186;2024-01-11T10:07:23;2.79;84.03
76759;DHT22;65701;45.588;5.186;2024-01-11T10:09:50;2.79;83.91
76759;DHT22;65701;45.588;5.186;2024-01-11T10:12:20;2.79;83.81
76759;DHT22;65701;45.588;5.186;2024-01-11T10:14:48;2.75;83.79
76759;DHT22;65701;45.588;5.186;2024-01-11T10:17:14;2.73;83.78
76759;DHT22;65701;45.588;5.186;2024-01-11T10:19:40;2.72;83.77
76759;DHT22;65701;45.588;5.186;2024-01-11T10:22:05;2.73;83.87
76759;DHT22;65701;45.588;5.186;2024-01-11T10:24:32;2.71;83.85
76759;DHT22;65701;45.588;5.186;2024-01-11T10:26:57;2.71;83.93
76759;DHT22;65701;45.588;5.186;2024-01-11T10:29:30;2.69;83.89
76759;DHT22;65701;45.588;5.186;2024-01-11T10:31:56;2.68;83.85
76759;DHT22;65701;45.588;5.186;2024-01-11T10:34:23;2.65;83.76
76759;DHT22;65701;45.588;5.186;2024-01-11T10:36:50;2.63;83.67
76759;DHT22;65701;45.588;5.186;2024-01-11T10:39:16;2.66;83.65
76759;DHT22;65701;45.588;5.186;2024-01-11T10:41:51;2.65;83.68
76759;DHT22;65701;45.588;5.186;2024-01-11T10:44:21;2.68;83.68
76759;DHT22;65701;45.588;5.186;2024-01-11T10:46:49;2.73;83.75
76759;DHT22;65701;45.588;5.186;2024-01-11T10:49:19;2.75;83.79
76759;DHT22;65701;45.588;5.186;2024-01-11T10:51:59;2.72;83.77
76759;DHT22;65701;45.588;5.186;2024-01-11T10:54:26;2.71;83.90
76759;DHT22;65701;45.588;5.186;2024-01-11T10:56:53;2.68;83.92
76759;DHT22;65701;45.588;5.186;2024-01-11T10:59:21;2.66;84.01
76759;DHT22;65701;45.588;5.186;2024-01-11T11:01:53;2.61;84.10
76759;DHT22;65701;45.588;5.186;2024-01-11T11:04:22;2.62;84.17
76759;DHT22;65701;45.588;5.186;2024-01-11T11:06:50;2.62;84.23
76759;DHT22;65701;45.588;5.186;2024-01-11T11:09:17;2.62;84.22
76759;DHT22;65701;45.588;5.186;2024-01-11T11:11:45;2.62;84.13
76759;DHT22;65701;45.588;5.186;2024-01-11T11:14:14;2.56;84.02
76759;DHT22;65701;45.588;5.186;2024-01-11T11:16:40;2.56;83.92
76759;DHT22;65701;45.588;5.186;2024-01-11T11:19:06;2.51;83.91
76759;DHT22;65701;45.588;5.186;2024-01-11T11:21:32;2.51;83.88
76759;DHT22;65701;45.588;5.186;2024-01-11T11:23:57;2.46;83.79
76759;DHT22;65701;45.588;5.186;2024-01-11T11:26:25;2.46;83.75
76759;DHT22;65701;45.588;5.186;2024-01-11T11:28:51;2.46;83.77
76759;DHT22;65701;45.588;5.186;2024-01-11T11:31:42;2.46;83.80
76759;DHT22;65701;45.588;5.186;2024-01-11T11:34:13;2.49;83.81
76759;DHT22;65701;45.588;5.186;2024-01-11T11:36:40;2.46;83.74
76759;DHT22;65701;45.588;5.186;2024-01-11T11:39:10;2.45;83.70
76759;DHT22;65701;45.588;5.186;2024-01-11T11:41:39;2.35;83.54
76759;DHT22;65701;45.588;5.186;2024-01-11T11:44:05;2.35;83.48
76759;DHT22;65701;45.588;5.186;2024-01-11T11:46:32;2.37;83.70
76759;DHT22;65701;45.588;5.186;2024-01-11T11:48:58;2.35;83.81
76759;DHT22;65701;45.588;5.186;2024-01-11T11:51:25;2.35;83.89
76759;DHT22;65701;45.588;5.186;2024-01-11T11:53:52;2.37;83.83
76759;DHT22;65701;45.588;5.186;2024-01-11T11:56:19;2.35;83.82
76759;DHT22;65701;45.588;5.186;2024-01-11T11:58:46;2.31;83.77
76759;DHT22;65701;45.588;5.186;2024-01-11T12:01:13;2.30;83.69
76759;DHT22;65701;45.588;5.186;2024-01-11T12:03:41;2.24;83.64
76759;DHT22;65701;45.588;5.186;2024-01-11T12:06:10;2.23;83.60
76759;DHT22;65701;45.588;5.186;2024-01-11T12:08:36;2.24;83.60
76759;DHT22;65701;45.588;5.186;2024-01-11T12:11:03;2.18;83.70
76759;DHT22;65701;45.588;5.186;2024-01-11T12:13:29;2.21;83.74
76759;DHT22;65701;45.588;5.186;2024-01-11T12:15:56;2.21;83.92
76759;DHT22;65701;45.588;5.186;2024-01-11T12:18:22;2.21;83.97
76759;DHT22;65701;45.588;5.186;2024-01-11T12:20:47;2.21;83.90
76759;DHT22;65701;45.588;5.186;2024-01-11T12:23:13;2.14;83.76
76759;DHT22;65701;45.588;5.186;2024-01-11T12:25:41;2.15;83.73
76759;DHT22;65701;45.588;5.186;2024-01-11T12:28:07;2.13;83.82
76759;DHT22;65701;45.588;5.186;2024-01-11T12:30:32;2.13;83.85
76759;DHT22;65701;45.588;5.186;2024-01-11T12:32:58;2.15;83.91
76759;DHT22;65701;45.588;5.186;2024-01-11T12:35:27;2.18;83.88
76759;DHT22;65701;45.588;5.186;2024-01-11T12:37:59;2.20;83.86
76759;DHT22;65701;45.588;5.186;2024-01-11T12:40:25;2.20;83.83
76759;DHT22;65701;45.588;5.186;2024-01-11T12:42:56;2.18;83.76
76759;DHT22;65701;45.588;5.186;2024-01-11T12:45:22;2.20;83.75
76759;DHT22;65701;45.588;5.186;2024-01-11T12:47:48;2.18;83.83
76759;DHT22;65701;45.588;5.186;2024-01-11T12:50:14;2.20;83.97
76759;DHT22;65701;45.588;5.186;2024-01-11T12:52:40;2.18;84.01
76759;DHT22;65701;45.588;5.186;2024-01-11T12:55:08;2.25;84.00
76759;DHT22;65701;45.588;5.186;2024-01-11T12:57:34;2.25;83.93
76759;DHT22;65701;45.588;5.186;2024-01-11T13:00:14;2.25;83.88
76759;DHT22;65701;45.588;5.186;2024-01-11T13:02:41;2.25;83.77
76759;DHT22;65701;45.588;5.186;2024-01-11T13:05:09;2.28;83.66
76759;DHT22;65701;45.588;5.186;2024-01-11T13:07:36;2.25;83.58
76759;DHT22;65701;45.588;5.186;2024-01-11T13:10:02;2.25;83.56
76759;DHT22;65701;45.588;5.186;2024-01-11T13:12:29;2.31;83.49
76759;DHT22;65701;45.588;5.186;2024-01-11T13:14:54;2.37;83.55
76759;DHT22;65701;45.588;5.186;2024-01-11T13:17:21;2.41;83.51
76759;DHT22;65701;45.588;5.186;2024-01-11T13:19:46;2.40;83.42
76759;DHT22;65701;45.588;5.186;2024-01-11T13:22:12;2.42;83.33
76759;DHT22;65701;45.588;5.186;2024-01-11T13:24:38;2.35;83.16
76759;DHT22;65701;45.588;5.186;2024-01-11T13:27:03;2.34;83.10
76759;DHT22;65701;45.588;5.186;2024-01-11T13:29:29;2.31;83.09
76759;DHT22;65701;45.588;5.186;2024-01-11T13:31:55;2.32;83.14
76759;DHT22;65701;45.588;5.186;2024-01-11T13:34:20;2.37;83.13
76759;DHT22;65701;45.588;5.186;2024-01-11T13:36:46;2.40;83.17
76759;DHT22;65701;45.588;5.186;2024-01-11T13:39:11;2.44;83.11
76759;DHT22;65701;45.588;5.186;2024-01-11T13:41:37;2.45;83.05
76759;DHT22;65701;45.588;5.186;2024-01-11T13:44:02;2.45;83.04
76759;DHT22;65701;45.588;5.186;2024-01-11T13:46:31;2.44;83.00
76759;DHT22;65701;45.588;5.186;2024-01-11T13:48:56;2.46;83.01
76759;DHT22;65701;45.588;5.186;2024-01-11T13:51:21;2.41;83.02
76759;DHT22;65701;45.588;5.186;2024-01-11T13:53:47;2.44;83.04
76759;DHT22;65701;45.588;5.186;2024-01-11T13:56:13;2.46;83.07
76759;DHT22;65701;45.588;5.186;2024-01-11T13:58:38;2.46;83.11
76759;DHT22;65701;45.588;5.186;2024-01-11T14:01:04;2.46;83.07
76759;DHT22;65701;45.588;5.186;2024-01-11T14:03:30;2.44;82.99
76759;DHT22;65701;45.588;5.186;2024-01-11T14:05:55;2.44;82.97
76759;DHT22;65701;45.588;5.186;2024-01-11T14:08:20;2.42;82.94
76759;DHT22;65701;45.588;5.186;2024-01-11T14:10:46;2.44;82.90
76759;DHT22;65701;45.588;5.186;2024-01-11T14:13:11;2.44;82.84
76759;DHT22;65701;45.588;5.186;2024-01-11T14:15:37;2.42;82.81
76759;DHT22;65701;45.588;5.186;2024-01-11T14:18:03;2.42;82.83
76759;DHT22;65701;45.588;5.186;2024-01-11T14:20:29;2.41;82.80
76759;DHT22;65701;45.588;5.186;2024-01-11T14:22:54;2.41;82.72
76759;DHT22;65701;45.588;5.186;2024-01-11T14:25:21;2.40;82.66
76759;DHT22;65701;45.588;5.186;2024-01-11T14:27:50;2.40;82.69
76759;DHT22;65701;45.588;5.186;2024-01-11T14:30:15;2.44;82.77
76759;DHT22;65701;45.588;5.186;2024-01-11T14:32:41;2.44;82.74
76759;DHT22;65701;45.588;5.186;2024-01-11T14:35:07;2.44;82.72
76759;DHT22;65701;45.588;5.186;2024-01-11T14:37:34;2.48;82.73
76759;DHT22;65701;45.588;5.186;2024-01-11T14:40:00;2.48;82.78
76759;DHT22;65701;45.588;5.186;2024-01-11T14:42:27;2.48;82.70
76759;DHT22;65701;45.588;5.186;2024-01-11T14:44:53;2.52;82.62
76759;DHT22;65701;45.588;5.186;2024-01-11T14:47:19;2.49;82.61
76759;DHT22;65701;45.588;5.186;2024-01-11T14:49:45;2.49;82.55
76759;DHT22;65701;45.588;5.186;2024-01-11T14:52:10;2.51;82.54
76759;DHT22;65701;45.588;5.186;2024-01-11T14:54:36;2.45;82.40
76759;DHT22;65701;45.588;5.186;2024-01-11T14:57:01;2.45;82.40
76759;DHT22;65701;45.588;5.186;2024-01-11T14:59:27;2.48;82.42
76759;DHT22;65701;45.588;5.186;2024-01-11T15:01:53;2.45;82.37
76759;DHT22;65701;45.588;5.186;2024-01-11T15:04:18;2.45;82.38
76759;DHT22;65701;45.588;5.186;2024-01-11T15:06:44;2.45;82.42
76759;DHT22;65701;45.588;5.186;2024-01-11T15:09:10;2.45;82.46
76759;DHT22;65701;45.588;5.186;2024-01-11T15:11:40;2.46;82.50
76759;DHT22;65701;45.588;5.186;2024-01-11T15:14:06;2.46;82.51
76759;DHT22;65701;45.588;5.186;2024-01-11T15:16:34;2.45;82.54
76759;DHT22;65701;45.588;5.186;2024-01-11T15:19:00;2.46;82.64
76759;DHT22;65701;45.588;5.186;2024-01-11T15:21:26;2.45;82.68
76759;DHT22;65701;45.588;5.186;2024-01-11T15:23:51;2.44;82.73
76759;DHT22;65701;45.588;5.186;2024-01-11T15:26:17;2.37;82.66
76759;DHT22;65701;45.588;5.186;2024-01-11T15:28:42;2.37;82.74
76759;DHT22;65701;45.588;5.186;2024-01-11T15:31:08;2.28;82.68
76759;DHT22;65701;45.588;5.186;2024-01-11T15:33:33;2.23;82.62
76759;DHT22;65701;45.588;5.186;2024-01-11T15:35:59;2.15;82.58
76759;DHT22;65701;45.588;5.186;2024-01-11T15:38:25;2.11;82.60
76759;DHT22;65701;45.588;5.186;2024-01-11T15:40:50;2.13;82.60
76759;DHT22;65701;45.588;5.186;2024-01-11T15:43:16;2.11;82.62
76759;DHT22;65701;45.588;5.186;2024-01-11T15:45:41;2.07;82.64
76759;DHT22;65701;45.588;5.186;2024-01-11T15:48:07;2.03;82.53
76759;DHT22;65701;45.588;5.186;2024-01-11T15:50:32;2.00;82.54
76759;DHT22;65701;45.588;5.186;2024-01-11T15:52:58;2.00;82.60
76759;DHT22;65701;45.588;5.186;2024-01-11T15:55:23;1.96;82.56
76759;DHT22;65701;45.588;5.186;2024-01-11T15:57:48;1.93;82.64
76759;DHT22;65701;45.588;5.186;2024-01-11T16:00:15;1.89;82.60
76759;DHT22;65701;45.588;5.186;2024-01-11T16:02:40;1.89;82.62
76759;DHT22;65701;45.588;5.186;2024-01-11T16:05:07;1.89;82.65
76759;DHT22;65701;45.588;5.186;2024-01-11T16:07:33;1.89;82.67
76759;DHT22;65701;45.588;5.186;2024-01-11T16:09:58;1.87;82.69
76759;DHT22;65701;45.588;5.186;2024-01-11T16:12:24;1.89;82.77
76759;DHT22;65701;45.588;5.186;2024-01-11T16:14:49;1.86;82.78
76759;DHT22;65701;45.588;5.186;2024-01-11T16:17:15;1.87;82.79
76759;DHT22;65701;45.588;5.186;2024-01-11T16:19:41;1.89;82.80
76759;DHT22;65701;45.588;5.186;2024-01-11T16:22:06;1.89;82.81
76759;DHT22;65701;45.588;5.186;2024-01-11T16:24:32;1.92;82.80
76759;DHT22;65701;45.588;5.186;2024-01-11T16:26:58;1.97;82.83
76759;DHT22;65701;45.588;5.186;2024-01-11T16:29:24;1.99;82.81
76759;DHT22;65701;45.588;5.186;2024-01-11T16:31:50;1.97;82.75
76759;DHT22;65701;45.588;5.186;2024-01-11T16:34:16;1.99;82.75
76759;DHT22;65701;45.588;5.186;2024-01-11T16:36:42;2.02;82.69
76759;DHT22;65701;45.588;5.186;2024-01-11T16:39:07;2.00;82.70
76759;DHT22;65701;45.588;5.186;2024-01-11T16:41:38;2.02;82.55
76759;DHT22;65701;45.588;5.186;2024-01-11T16:44:07;2.04;82.53
76759;DHT22;65701;45.588;5.186;2024-01-11T16:46:32;2.04;82.51
76759;DHT22;65701;45.588;5.186;2024-01-11T16:48:58;2.04;82.50
76759;DHT22;65701;45.588;5.186;2024-01-11T16:51:26;2.04;82.53
76759;DHT22;65701;45.588;5.186;2024-01-11T16:53:52;2.04;82.52
76759;DHT22;65701;45.588;5.186;2024-01-11T16:56:17;2.06;82.54
76759;DHT22;65701;45.588;5.186;2024-01-11T16:58:43;2.06;82.47
76759;DHT22;65701;45.588;5.186;2024-01-11T17:01:09;2.04;82.48
76759;DHT22;65701;45.588;5.186;2024-01-11T17:03:35;2.04;82.50
76759;DHT22;65701;45.588;5.186;2024-01-11T17:06:01;2.07;82.51
76759;DHT22;65701;45.588;5.186;2024-01-11T17:08:26;2.04;82.54
76759;DHT22;65701;45.588;5.186;2024-01-11T17:10:52;2.04;82.56
76759;DHT22;65701;45.588;5.186;2024-01-11T17:13:17;2.02;82.53
76759;DHT22;65701;45.588;5.186;2024-01-11T17:15:43;1.97;82.56
76759;DHT22;65701;45.588;5.186;2024-01-11T17:18:10;2.00;82.67
76759;DHT22;65701;45.588;5.186;2024-01-11T17:20:35;1.99;82.73
76759;DHT22;65701;45.588;5.186;2024-01-11T17:23:01;1.97;82.79
76759;DHT22;65701;45.588;5.186;2024-01-11T17:25:27;1.99;82.84
76759;DHT22;65701;45.588;5.186;2024-01-11T17:27:53;1.99;82.85
76759;DHT22;65701;45.588;5.186;2024-01-11T17:30:18;1.97;82.87
76759;DHT22;65701;45.588;5.186;2024-01-11T17:32:44;1.90;82.89
76759;DHT22;65701;45.588;5.186;2024-01-11T17:35:11;1.82;83.03
76759;DHT22;65701;45.588;5.186;2024-01-11T17:37:36;1.80;83.18
76759;DHT22;65701;45.588;5.186;2024-01-11T17:40:04;1.76;83.18
76759;DHT22;65701;45.588;5.186;2024-01-11T17:42:29;1.69;83.30
76759;DHT22;65701;45.588;5.186;2024-01-11T17:44:55;1.63;83.38
76759;DHT22;65701;45.588;5.186;2024-01-11T17:47:23;1.56;83.47
76759;DHT22;65701;45.588;5.186;2024-01-11T17:49:48;1.59;83.67
76759;DHT22;65701;45.588;5.186;2024-01-11T17:52:14;1.56;83.70
76759;DHT22;65701;45.588;5.186;2024-01-11T17:54:40;1.55;83.70
76759;DHT22;65701;45.588;5.186;2024-01-11T17:57:05;1.56;83.81
76759;DHT22;65701;45.588;5.186;2024-01-11T17:59:33;1.54;83.98
76759;DHT22;65701;45.588;5.186;2024-01-11T18:01:58;1.58;83.92
76759;DHT22;65701;45.588;5.186;2024-01-11T18:04:24;1.56;83.89
76759;DHT22;65701;45.588;5.186;2024-01-11T18:06:49;1.55;83.92
76759;DHT22;65701;45.588;5.186;2024-01-11T18:09:15;1.55;83.89
76759;DHT22;65701;45.588;5.186;2024-01-11T18:11:45;1.59;83.92
76759;DHT22;65701;45.588;5.186;2024-01-11T18:14:11;1.59;83.95
76759;DHT22;65701;45.588;5.186;2024-01-11T18:16:36;1.60;84.00
76759;DHT22;65701;45.588;5.186;2024-01-11T18:19:02;1.60;84.00
76759;DHT22;65701;45.588;5.186;2024-01-11T18:21:28;1.63;84.00
76759;DHT22;65701;45.588;5.186;2024-01-11T18:23:55;1.62;83.86
76759;DHT22;65701;45.588;5.186;2024-01-11T18:26:22;1.63;83.89
76759;DHT22;65701;45.588;5.186;2024-01-11T18:28:49;1.62;83.90
76759;DHT22;65701;45.588;5.186;2024-01-11T18:31:15;1.59;83.88
76759;DHT22;65701;45.588;5.186;2024-01-11T18:33:41;1.59;83.92
76759;DHT22;65701;45.588;5.186;2024-01-11T18:36:08;1.55;83.85
76759;DHT22;65701;45.588;5.186;2024-01-11T18:38:34;1.59;83.86
76759;DHT22;65701;45.588;5.186;2024-01-11T18:41:00;1.58;83.86
76759;DHT22;65701;45.588;5.186;2024-01-11T18:43:26;1.59;83.88
76759;DHT22;65701;45.588;5.186;2024-01-11T18:45:52;1.56;83.83
76759;DHT22;65701;45.588;5.186;2024-01-11T18:48:17;1.56;83.86
76759;DHT22;65701;45.588;5.186;2024-01-11T18:50:43;1.56;83.93
76759;DHT22;65701;45.588;5.186;2024-01-11T18:53:09;1.58;83.87
76759;DHT22;65701;45.588;5.186;2024-01-11T18:55:35;1.56;83.86
76759;DHT22;65701;45.588;5.186;2024-01-11T18:58:00;1.55;83.83
76759;DHT22;65701;45.588;5.186;2024-01-11T19:00:26;1.49;83.86
76759;DHT22;65701;45.588;5.186;2024-01-11T19:02:51;1.49;83.88
76759;DHT22;65701;45.588;5.186;2024-01-11T19:05:18;1.49;83.88
76759;DHT22;65701;45.588;5.186;2024-01-11T19:07:45;1.51;83.80
76759;DHT22;65701;45.588;5.186;2024-01-11T19:10:11;1.51;83.80
76759;DHT22;65701;45.588;5.186;2024-01-11T19:12:37;1.52;83.83
76759;DHT22;65701;45.588;5.186;2024-01-11T19:15:04;1.51;83.79
76759;DHT22;65701;45.588;5.186;2024-01-11T19:17:29;1.51;83.71
76759;DHT22;65701;45.588;5.186;2024-01-11T19:19:55;1.52;83.65
76759;DHT22;65701;45.588;5.186;2024-01-11T19:22:21;1.51;83.75
76759;DHT22;65701;45.588;5.186;2024-01-11T19:24:46;1.48;83.83
76759;DHT22;65701;45.588;5.186;2024-01-11T19:27:12;1.49;83.84
76759;DHT22;65701;45.588;5.186;2024-01-11T19:29:37;1.49;83.86
76759;DHT22;65701;45.588;5.186;2024-01-11T19:32:03;1.44;83.99
76759;DHT22;65701;45.588;5.186;2024-01-11T19:34:28;1.40;84.03
76759;DHT22;65701;45.588;5.186;2024-01-11T19:36:54;1.37;84.05
76759;DHT22;65701;45.588;5.186;2024-01-11T19:39:19;1.37;84.22
76759;DHT22;65701;45.588;5.186;2024-01-11T19:41:45;1.31;84.14
76759;DHT22;65701;45.588;5.186;2024-01-11T19:44:11;1.34;84.10
76759;DHT22;65701;45.588;5.186;2024-01-11T19:46:36;1.32;84.13
76759;DHT22;65701;45.588;5.186;2024-01-11T19:49:03;1.32;84.13
76759;DHT22;65701;45.588;5.186;2024-01-11T19:51:28;1.31;84.15
76759;DHT22;65701;45.588;5.186;2024-01-11T19:53:54;1.28;84.13
76759;DHT22;65701;45.588;5.186;2024-01-11T19:56:21;1.28;84.13
76759;DHT22;65701;45.588;5.186;2024-01-11T19:58:48;1.20;84.18
76759;DHT22;65701;45.588;5.186;2024-01-11T20:01:14;1.24;84.26
76759;DHT22;65701;45.588;5.186;2024-01-11T20:03:40;1.17;84.29
76759;DHT22;65701;45.588;5.186;2024-01-11T20:06:06;1.23;84.24
76759;DHT22;65701;45.588;5.186;2024-01-11T20:08:36;1.20;84.22
76759;DHT22;65701;45.588;5.186;2024-01-11T20:11:02;1.23;84.18
76759;DHT22;65701;45.588;5.186;2024-01-11T20:13:28;1.24;84.04
76759;DHT22;65701;45.588;5.186;2024-01-11T20:15:54;1.28;83.99
76759;DHT22;65701;45.588;5.186;2024-01-11T20:18:19;1.31;83.98
76759;DHT22;65701;45.588;5.186;2024-01-11T20:20:45;1.31;83.93
76759;DHT22;65701;45.588;5.186;2024-01-11T20:23:11;1.37;83.91
76759;DHT22;65701;45.588;5.186;2024-01-11T20:25:37;1.40;83.93
76759;DHT22;65701;45.588;5.186;2024-01-11T20:28:02;1.41;83.94
76759;DHT22;65701;45.588;5.186;2024-01-11T20:30:28;1.38;83.98
76759;DHT22;65701;45.588;5.186;2024-01-11T20:32:53;1.42;83.87
76759;DHT22;65701;45.588;5.186;2024-01-11T20:35:19;1.38;83.81
76759;DHT22;65701;45.588;5.186;2024-01-11T20:37:45;1.38;83.76
76759;DHT22;65701;45.588;5.186;2024-01-11T20:40:10;1.40;83.78
76759;DHT22;65701;45.588;5.186;2024-01-11T20:42:36;1.38;83.83
76759;DHT22;65701;45.588;5.186;2024-01-11T20:45:02;1.40;83.74
76759;DHT22;65701;45.588;5.186;2024-01-11T20:47:28;1.38;83.69
76759;DHT22;65701;45.588;5.186;2024-01-11T20:49:54;1.38;83.70
76759;DHT22;65701;45.588;5.186;2024-01-11T20:52:22;1.37;83.61
76759;DHT22;65701;45.588;5.186;2024-01-11T20:54:48;1.35;83.59
76759;DHT22;65701;45.588;5.186;2024-01-11T20:57:13;1.34;83.66
76759;DHT22;65701;45.588;5.186;2024-01-11T20:59:39;1.34;83.65